Terminal Aerodrome Forecast
Issued by NWS Green Bay, WI

Home | Current Version | Previous Version | Graphics & Text | Print | Product List | Glossary On
Versions: 1 2 3 4 5 6 7 8 9 10 11 12 13 14 15 16 17 18
000
FTUS43 KGRB 242003 AAB
TAFGRB
TAF AMD
KGRB 242003Z 2420/2518 04012G19KT P6SM SCT008 OVC015
      TEMPO 2420/2424 -SHRA BKN008
     FM250100 03011KT P6SM OVC019
     FM250800 01008KT P6SM BKN016
     FM251600 03010G15KT P6SM BKN023=

USA.gov is the U.S. government's official web portal to all federal, state and local government web resources and services.